Nearby METAR Reports

 

KLOT - Romeoville/Chi, Illinois, USA
Distance from station: N 3mi, 5km
Updated: Sun, 23-Feb-2020 1:15am CST
Clear
Clear
 Wind from SSW
Wind: SSW 10 mph , 17 km/h
Temperature: 34°F , 1°C
Wind Chill: 26°F , -3°C
Dew Point: 27°F , -3°C
Humidity: 75%
Barometer: 30.05 inHg , 1017.6 hPa
Clouds: Clear
Visibility: 10 miles , 16 km
2020/02/23 07:15 KLOT 230715Z AUTO 21009KT 10SM CLR 01/M03 A3005 RMK AO2 T00101026
KJOT - Joliet, Illinois, USA
Distance from station: WSW 5mi, 7km
Updated: Sun, 23-Feb-2020 1:15am CST
Clear
Clear
 Wind from SSW
Wind: SSW 8 mph , 13 km/h
Temperature: 36°F , 2°C
Wind Chill: 30°F , -1°C
Dew Point: 27°F , -3°C
Humidity: 70%
Barometer: 30.06 inHg , 1017.9 hPa
Clouds: Clear
Visibility: 10 miles , 16 km
2020/02/23 07:15 KJOT 230715Z AUTO 20007KT 10SM CLR 02/M03 A3006 RMK AO2 T00191033
 
KC09 - Morris-Washburn, Illinois, USA
Distance from station: WSW 18mi, 29km
Updated: Sun, 23-Feb-2020 1:15am CST
Clear
Clear
 Wind from SSW
Wind: SSW 8 mph , 13 km/h
Temperature: 34°F , 1°C
Wind Chill: 27°F , -3°C
Dew Point: 27°F , -3°C
Humidity: 75%
Barometer: 30.06 inHg , 1017.9 hPa
Clouds: Clear
Visibility: 10 miles , 16 km
2020/02/23 07:15 KC09 230715Z AUTO 20007KT 10SM CLR 01/M03 A3006 RMK AO2 T00101032
KARR - Chicago/Aurora, Illinois, USA
Distance from station: NW 24mi, 39km
Updated: Sun, 23-Feb-2020 12:52am CST
Clear
Clear
 Wind from S
Wind: S 10 mph , 17 km/h
Temperature: 34°F , 1°C
Wind Chill: 26°F , -3°C
Dew Point: 25°F , -4°C
Humidity: 70%
Barometer: 30.04 inHg , 1017.3 hPa
Clouds: Clear
Visibility: 10 miles , 16 km
2020/02/23 06:52 KARR 230652Z AUTO 18009KT 10SM CLR 01/M04 A3004 RMK AO2 SLP177 T00111044
 
KMDW - Chicago, Illinois, USA
Distance from station: NE 25mi, 39km
Updated: Sun, 23-Feb-2020 12:53am CST
Clear
Clear
 Wind from SSW
Wind: SSW 9 mph , 15 km/h
Temperature: 36°F , 2°C
Wind Chill: 29°F , -2°C
Dew Point: 25°F , -4°C
Humidity: 65%
Barometer: 30.06 inHg , 1017.9 hPa
Clouds: Clear
Visibility: 10 miles , 16 km
2020/02/23 06:53 KMDW 230653Z 21008KT 10SM CLR 02/M04 A3006 RMK AO2 SLP185 T00171044
KDPA - Chicago/Dupage, Illinois, USA
Distance from station: NNW 26mi, 42km
Updated: Sun, 23-Feb-2020 12:52am CST
Clear
Clear
 Wind from S
Wind: S 10 mph , 17 km/h
Temperature: 30°F , -1°C
Wind Chill: 21°F , -6°C
Dew Point: 25°F , -4°C
Humidity: 80%
Barometer: 30.03 inHg , 1016.9 hPa
Clouds: Clear
Visibility: 10 miles , 16 km
2020/02/23 06:52 KDPA 230652Z 18009KT 10SM CLR M01/M04 A3003 RMK AO2 SLP177 T10061039
 
KIGQ - Chicago/Lansing, Illinois, USA
Distance from station: E 30mi, 48km
Updated: Sun, 23-Feb-2020 1:15am CST
Clear
Clear
 Wind from SSW
Wind: SSW 9 mph , 15 km/h
Temperature: 34°F , 1°C
Wind Chill: 27°F , -3°C
Dew Point: 25°F , -4°C
Humidity: 70%
Barometer: 30.08 inHg , 1018.6 hPa
Clouds: Clear
Visibility: 10 miles , 16 km
2020/02/23 07:15 KIGQ 230715Z AUTO 21008KT 10SM CLR 01/M04 A3008 RMK AO2 T00071045
KORD - Chicago O'hare, Illinois, USA
Distance from station: NNE 31mi, 50km
Updated: Sun, 23-Feb-2020 12:51am CST
Clear
Clear
 Wind from SSW
Wind: SSW 12 mph , 19 km/h
Temperature: 37°F , 3°C
Wind Chill: 29°F , -2°C
Dew Point: 25°F , -4°C
Humidity: 60%
Barometer: 30.03 inHg , 1016.9 hPa
Clouds: Clear
Visibility: 10 miles , 16 km
2020/02/23 06:51 KORD 230651Z 21010KT 10SM CLR 03/M04 A3003 RMK AO2 SLP174 T00331044
 
KGYY - Gary Regional, Indiana, USA
Distance from station: E 36mi, 58km
Updated: Sun, 23-Feb-2020 1:15am CST
Clear
Clear
 Wind from SSW
Wind: SSW 6 mph , 9 km/h
Temperature: 37°F , 3°C
Wind Chill: 32°F , 0°C
Dew Point: 21°F , -6°C
Humidity: 52%
Barometer: 30.08 inHg , 1018.6 hPa
Clouds: Clear
Visibility: 10 miles , 16 km
2020/02/23 07:15 KGYY 230715Z AUTO 20005KT 10SM CLR 03/M06 A3008 RMK AO2 T00301063
KIKK - Kankakee, Illinois, USA
Distance from station: SSE 36mi, 58km
Updated: Sun, 23-Feb-2020 1:15am CST
Clear
Clear
 Wind from SSW
Wind: SSW 12 mph , 19 km/h
Temperature: 34°F , 1°C
Wind Chill: 25°F , -4°C
Dew Point: 23°F , -5°C
Humidity: 65%
Barometer: 30.10 inHg , 1019.3 hPa
Clouds: Clear
Visibility: 10 miles , 16 km
2020/02/23 07:15 KIKK 230715Z AUTO 21010KT 10SM CLR 01/M05 A3010 RMK AO2 T00121048 PWINO
 
KDKB - De Kalb, Illinois, USA
Distance from station: NW 40mi, 65km
Updated: Sun, 23-Feb-2020 1:15am CST
Clear
Clear
 Wind from S
Wind: S 10 mph , 17 km/h
Temperature: 30°F , -1°C
Wind Chill: 21°F , -6°C
Dew Point: 27°F , -3°C
Humidity: 86%
Barometer: 30.02 inHg , 1016.6 hPa
Clouds: Clear
Visibility: 10 miles , 16 km
2020/02/23 07:15 KDKB 230715Z AUTO 18009KT 10SM CLR M01/M03 A3002 RMK AO2 T10071027
KPWK - Palwaukee, Illinois, USA
Distance from station: NNE 41mi, 65km
Updated: Sun, 23-Feb-2020 12:52am CST
Clear
Clear
 Wind from SSW
Wind: SSW 12 mph , 19 km/h
Temperature: 37°F , 3°C
Wind Chill: 29°F , -2°C
Dew Point: 25°F , -4°C
Humidity: 60%
Barometer: 30.04 inHg , 1017.3 hPa
Clouds: Clear
Visibility: 10 miles , 16 km
2020/02/23 06:52 KPWK 230652Z AUTO 20010KT 10SM CLR 03/M04 A3004 RMK AO2 SLP177 T00331044